Time;durP1;ratioP1;P1;durP2;ratioP2;P2;SDS_P1;SDS_P2;PMS_P1;PMS_P2;Temp;Humidity;BMP_temperature;BMP_pressure;BME280_temperature;BME280_humidity;BME280_pressure;Samples;Min_cycle;Max_cycle;Signal;HPM_P1;HPM_P2
2021/12/30 00:01:24;;;;;;;8.43;4.93;;;11.10;99.90;;;;;;5015066;28;20452;-74
2021/12/30 00:04:10;;;;;;;8.03;5.43;;;11.10;99.90;;;;;;5021273;28;20974;-73
2021/12/30 00:06:57;;;;;;;8.30;6.13;;;11.10;99.90;;;;;;5019131;28;20484;-72
2021/12/30 00:09:43;;;;;;;14.57;5.67;;;11.20;99.90;;;;;;5022216;28;20436;-73
2021/12/30 00:12:29;;;;;;;26.53;7.27;;;11.20;99.90;;;;;;5019708;28;20911;-73
2021/12/30 00:15:15;;;;;;;7.47;5.20;;;11.20;99.90;;;;;;5016022;28;20449;-73
2021/12/30 00:18:02;;;;;;;7.00;6.30;;;11.20;99.90;;;;;;5026664;28;20969;-73
2021/12/30 00:20:48;;;;;;;12.53;6.40;;;11.20;99.90;;;;;;5026463;28;20503;-73
2021/12/30 00:23:34;;;;;;;8.07;6.10;;;11.20;99.90;;;;;;5016830;28;20476;-73
2021/12/30 00:26:21;;;;;;;6.77;6.10;;;11.20;99.90;;;;;;5022646;28;20544;-73
2021/12/30 00:29:07;;;;;;;9.00;5.53;;;11.30;99.90;;;;;;5013528;28;20411;-73
2021/12/30 00:31:53;;;;;;;9.17;6.07;;;11.20;99.90;;;;;;5025317;28;20423;-73
2021/12/30 00:34:39;;;;;;;6.20;5.60;;;11.30;99.90;;;;;;5017987;28;20460;-73
2021/12/30 00:37:25;;;;;;;6.30;5.47;;;11.30;99.90;;;;;;5027270;28;20417;-73
2021/12/30 00:40:13;;;;;;;8.90;5.70;;;11.30;99.90;;;;;;5012809;28;20449;-73
2021/12/30 00:42:59;;;;;;;10.27;6.30;;;11.30;99.90;;;;;;5015794;28;20488;-73
2021/12/30 00:45:45;;;;;;;18.60;6.83;;;11.30;99.90;;;;;;5016349;28;21017;-73
2021/12/30 00:48:31;;;;;;;9.27;6.30;;;11.30;99.90;;;;;;5022050;28;20575;-73
2021/12/30 00:51:17;;;;;;;7.90;7.10;;;11.30;99.90;;;;;;5018568;28;20546;-73
2021/12/30 00:54:02;;;;;;;12.50;6.23;;;11.30;99.90;;;;;;5009193;28;20453;-73
2021/12/30 00:56:50;;;;;;;8.50;5.90;;;11.40;99.90;;;;;;5022369;28;20605;-73
2021/12/30 00:59:36;;;;;;;11.43;5.20;;;11.50;99.90;;;;;;5020527;28;20777;-73
2021/12/30 01:02:21;;;;;;;6.63;5.07;;;11.50;99.90;;;;;;5012133;28;20461;-73
2021/12/30 01:05:08;;;;;;;6.97;4.00;;;11.60;99.90;;;;;;5021923;28;20472;-73
2021/12/30 01:07:54;;;;;;;5.77;4.33;;;11.70;99.90;;;;;;5027199;28;20794;-73
2021/12/30 01:10:40;;;;;;;6.23;4.43;;;11.70;99.90;;;;;;5024428;28;20456;-73
2021/12/30 01:13:30;;;;;;;4.30;3.10;;;11.70;99.90;;;;;;5012724;28;20548;-73
2021/12/30 01:16:18;;;;;;;6.80;3.27;;;11.70;99.90;;;;;;5020472;28;21088;-73
2021/12/30 01:19:21;;;;;;;3.73;2.70;;;11.70;99.90;;;;;;5013238;28;20946;-73
2021/12/30 01:22:07;;;;;;;9.30;3.20;;;11.70;99.90;;;;;;5021349;28;20424;-73
2021/12/30 01:24:54;;;;;;;5.73;2.40;;;11.70;99.90;;;;;;5020406;28;20471;-73
2021/12/30 01:27:40;;;;;;;3.87;2.80;;;11.80;99.90;;;;;;5013634;28;20444;-73
2021/12/30 01:30:28;;;;;;;4.73;2.73;;;11.70;99.90;;;;;;5022982;28;20560;-73
2021/12/30 01:33:13;;;;;;;13.13;2.83;;;11.80;99.90;;;;;;5009919;28;20453;-73
2021/12/30 01:35:59;;;;;;;5.03;3.37;;;11.80;99.90;;;;;;5017066;28;20465;-73
2021/12/30 01:38:45;;;;;;;4.60;3.27;;;11.70;99.90;;;;;;5016990;28;20448;-73
2021/12/30 01:41:31;;;;;;;2.67;1.90;;;11.70;99.90;;;;;;5021569;28;20549;-73
2021/12/30 01:44:17;;;;;;;5.87;2.93;;;11.70;99.90;;;;;;5019993;28;20959;-73
2021/12/30 01:47:05;;;;;;;4.73;2.00;;;11.70;99.90;;;;;;5014637;28;20556;-73
2021/12/30 01:49:53;;;;;;;7.40;2.53;;;11.60;99.90;;;;;;5020085;28;20445;-72
2021/12/30 01:52:39;;;;;;;3.63;2.83;;;11.60;99.90;;;;;;5009772;28;20504;-74
2021/12/30 01:55:24;;;;;;;3.93;2.47;;;11.50;99.90;;;;;;5020081;28;20524;-73
2021/12/30 01:58:11;;;;;;;7.90;2.23;;;11.50;99.90;;;;;;5032267;28;20420;-74
2021/12/30 02:00:58;;;;;;;10.63;2.00;;;11.50;99.90;;;;;;5017367;28;20962;-74
2021/12/30 02:03:45;;;;;;;7.10;2.63;;;11.50;99.90;;;;;;5008558;28;20929;-74
2021/12/30 02:06:31;;;;;;;4.07;2.10;;;11.50;99.90;;;;;;5019467;28;20805;-74
2021/12/30 02:09:19;;;;;;;6.87;2.27;;;11.40;99.90;;;;;;5021091;28;20495;-74
2021/12/30 02:12:06;;;;;;;5.90;2.20;;;11.50;99.90;;;;;;5016129;28;20449;-73
2021/12/30 02:14:51;;;;;;;4.03;2.33;;;11.50;99.90;;;;;;5012812;28;20481;-74
2021/12/30 02:17:37;;;;;;;7.67;2.53;;;11.50;99.90;;;;;;5012307;28;20789;-73
2021/12/30 02:20:46;;;;;;;3.30;1.80;;;11.40;99.90;;;;;;5012515;28;20557;-74
2021/12/30 02:23:34;;;;;;;4.83;2.07;;;11.50;99.90;;;;;;5014398;28;20412;-74
2021/12/30 02:26:20;;;;;;;6.00;1.90;;;11.50;99.90;;;;;;5011262;28;21048;-74
2021/12/30 02:29:06;;;;;;;7.83;1.70;;;11.40;99.90;;;;;;5059466;23;20626;-74
2021/12/30 02:31:51;;;;;;;5.40;1.90;;;11.40;99.90;;;;;;5047897;28;20960;-74
2021/12/30 02:34:38;;;;;;;5.47;1.50;;;11.40;99.90;;;;;;5045594;28;20455;-73
2021/12/30 02:37:25;;;;;;;2.83;1.37;;;11.40;99.90;;;;;;5035761;28;20441;-73
2021/12/30 02:40:12;;;;;;;3.27;1.50;;;11.30;99.90;;;;;;5051072;28;20390;-73
2021/12/30 02:42:57;;;;;;;3.70;1.60;;;11.40;99.90;;;;;;5046015;28;20967;-73
2021/12/30 02:45:43;;;;;;;8.53;1.80;;;11.40;99.90;;;;;;5042850;28;20447;-73
2021/12/30 02:48:31;;;;;;;3.23;1.70;;;11.40;99.90;;;;;;5044092;28;20602;-73
2021/12/30 02:51:17;;;;;;;2.93;1.23;;;11.40;99.90;;;;;;5048891;28;20421;-73
2021/12/30 02:54:05;;;;;;;9.93;1.43;;;11.40;99.90;;;;;;5040284;28;20448;-73
2021/12/30 02:56:51;;;;;;;7.83;1.60;;;11.30;99.90;;;;;;5051224;28;20426;-73
2021/12/30 02:59:37;;;;;;;8.50;1.47;;;11.30;99.90;;;;;;5049935;28;20433;-72
2021/12/30 03:02:22;;;;;;;6.03;1.63;;;11.30;99.90;;;;;;5038298;28;20503;-73
2021/12/30 03:05:09;;;;;;;6.30;3.23;;;11.30;99.90;;;;;;5042454;28;20522;-73
2021/12/30 03:07:55;;;;;;;1.73;1.17;;;11.30;99.90;;;;;;5050590;28;20479;-73
2021/12/30 03:10:43;;;;;;;4.00;1.20;;;11.30;99.90;;;;;;5041073;28;20451;-73
2021/12/30 03:13:31;;;;;;;4.80;1.57;;;11.20;99.90;;;;;;5044160;28;20459;-73
2021/12/30 03:16:18;;;;;;;8.37;1.80;;;11.20;99.90;;;;;;5050747;28;20423;-73
2021/12/30 03:19:05;;;;;;;13.67;2.13;;;11.20;99.90;;;;;;5040300;28;20787;-73
2021/12/30 03:21:55;;;;;;;5.03;1.67;;;11.30;99.90;;;;;;5043164;28;20448;-73
2021/12/30 03:24:41;;;;;;;11.97;1.57;;;11.30;99.90;;;;;;5045330;28;20566;-73
2021/12/30 03:27:28;;;;;;;6.50;1.40;;;11.30;99.90;;;;;;5046952;28;20479;-73
2021/12/30 03:30:15;;;;;;;13.80;2.10;;;11.30;99.90;;;;;;5035007;28;20463;-73
2021/12/30 03:33:01;;;;;;;2.47;1.10;;;11.30;99.90;;;;;;5048159;28;20577;-73
2021/12/30 03:35:47;;;;;;;9.27;1.40;;;11.40;99.90;;;;;;5049453;28;20422;-73
2021/12/30 03:38:34;;;;;;;7.70;1.37;;;11.40;99.90;;;;;;5044334;28;20483;-73
2021/12/30 03:41:22;;;;;;;6.60;1.90;;;11.40;99.90;;;;;;5035382;28;20440;-72
2021/12/30 03:44:10;;;;;;;15.17;2.00;;;11.40;99.90;;;;;;5043274;28;20538;-73
2021/12/30 03:46:56;;;;;;;8.10;1.70;;;11.30;99.90;;;;;;5043196;28;20550;-73
2021/12/30 03:49:44;;;;;;;5.87;1.80;;;11.30;99.90;;;;;;5050460;28;20454;-73
2021/12/30 03:52:31;;;;;;;6.67;1.47;;;11.30;99.90;;;;;;5045998;28;20549;-73
2021/12/30 03:55:17;;;;;;;5.00;1.37;;;11.30;99.90;;;;;;5045164;28;20820;-73
2021/12/30 03:58:03;;;;;;;9.80;2.13;;;11.30;99.90;;;;;;5049152;28;20538;-73
2021/12/30 04:00:51;;;;;;;9.10;1.57;;;11.30;99.90;;;;;;5044816;28;20818;-73
2021/12/30 04:03:37;;;;;;;7.87;1.70;;;11.20;99.90;;;;;;5045013;28;20431;-73
2021/12/30 04:06:23;;;;;;;2.93;1.53;;;11.30;99.90;;;;;;5041782;28;20472;-73
2021/12/30 04:09:08;;;;;;;13.53;1.77;;;11.30;99.90;;;;;;5047788;28;20797;-72
2021/12/30 04:11:54;;;;;;;8.43;2.07;;;11.30;99.90;;;;;;5042517;28;20807;-73
2021/12/30 04:14:41;;;;;;;16.63;2.37;;;11.30;99.90;;;;;;5040315;28;20455;-73
2021/12/30 04:17:28;;;;;;;6.37;2.40;;;11.30;99.90;;;;;;5049448;28;20467;-73
2021/12/30 04:20:16;;;;;;;4.70;1.63;;;11.40;99.90;;;;;;5052547;28;21083;-73
2021/12/30 04:23:02;;;;;;;5.43;1.73;;;11.40;99.90;;;;;;5051072;28;20414;-73
2021/12/30 04:25:47;;;;;;;10.30;3.27;;;11.40;99.90;;;;;;5045099;28;20478;-76
2021/12/30 04:28:32;;;;;;;3.93;1.50;;;11.40;99.90;;;;;;5044345;28;20468;-75
2021/12/30 04:31:18;;;;;;;7.70;2.77;;;11.40;99.90;;;;;;5051451;28;21006;-74
2021/12/30 04:34:05;;;;;;;7.70;2.13;;;11.40;99.90;;;;;;5053815;28;20447;-75
2021/12/30 04:36:50;;;;;;;8.43;2.70;;;11.40;99.90;;;;;;5045281;28;20491;-75
2021/12/30 04:39:36;;;;;;;12.43;2.33;;;11.50;99.90;;;;;;5051508;28;20447;-75
2021/12/30 04:42:22;;;;;;;8.90;2.30;;;11.50;99.90;;;;;;5052662;28;20495;-75
2021/12/30 04:45:09;;;;;;;5.87;2.50;;;11.50;99.90;;;;;;5053520;28;20466;-74
2021/12/30 04:47:54;;;;;;;5.53;2.30;;;11.50;99.90;;;;;;5050038;28;20504;-74
2021/12/30 04:50:41;;;;;;;9.50;2.50;;;11.50;99.90;;;;;;5043148;28;20957;-75
2021/12/30 04:53:27;;;;;;;9.50;2.30;;;11.50;99.90;;;;;;5034059;28;20494;-75
2021/12/30 04:56:13;;;;;;;3.90;2.10;;;11.50;99.90;;;;;;5052701;28;20422;-74
2021/12/30 04:58:58;;;;;;;10.90;2.53;;;11.60;99.90;;;;;;5052818;28;20467;-74
2021/12/30 05:01:44;;;;;;;3.90;2.13;;;11.60;99.90;;;;;;5042040;28;20536;-74
2021/12/30 05:04:30;;;;;;;4.93;2.27;;;11.70;99.90;;;;;;5053705;28;20416;-74
2021/12/30 05:07:17;;;;;;;7.57;2.63;;;11.70;99.90;;;;;;5052184;28;20538;-75
2021/12/30 05:10:03;;;;;;;8.60;2.60;;;11.70;99.90;;;;;;5049428;28;20631;-74
2021/12/30 05:12:49;;;;;;;5.60;2.53;;;11.70;99.90;;;;;;5050300;28;20456;-74
2021/12/30 05:15:35;;;;;;;6.50;2.30;;;11.80;99.90;;;;;;5047007;28;20456;-74
2021/12/30 05:18:29;;;;;;;7.53;2.90;;;11.80;99.90;;;;;;5052719;28;20542;-75
2021/12/30 05:21:15;;;;;;;2.60;2.17;;;11.80;99.90;;;;;;5039213;28;20432;-74
2021/12/30 05:24:01;;;;;;;11.10;3.00;;;11.90;99.90;;;;;;5051605;28;20788;-74
2021/12/30 05:26:47;;;;;;;4.20;2.13;;;11.90;99.90;;;;;;5044482;28;20959;-75
2021/12/30 05:29:33;;;;;;;6.20;2.03;;;12.00;99.90;;;;;;5044506;28;20819;-76
2021/12/30 05:32:18;;;;;;;4.13;2.23;;;12.10;99.90;;;;;;5037158;28;20443;-74
2021/12/30 05:35:04;;;;;;;6.93;2.30;;;12.10;99.90;;;;;;5050681;28;20447;-74
2021/12/30 05:37:51;;;;;;;2.53;1.57;;;12.10;99.90;;;;;;5049410;28;20474;-74
2021/12/30 05:40:38;;;;;;;2.50;1.30;;;12.30;99.90;;;;;;5049903;28;20811;-75
2021/12/30 05:43:24;;;;;;;1.80;1.10;;;12.40;99.90;;;;;;5044682;28;20522;-74
2021/12/30 05:46:09;;;;;;;2.03;1.20;;;12.50;99.90;;;;;;5052194;28;20777;-74
2021/12/30 05:48:55;;;;;;;2.23;1.20;;;12.60;99.90;;;;;;5048704;28;20940;-74
2021/12/30 05:51:41;;;;;;;4.30;1.40;;;12.70;99.90;;;;;;5040379;28;20443;-74
2021/12/30 05:54:27;;;;;;;2.40;1.43;;;12.70;99.90;;;;;;5050082;28;20606;-74
2021/12/30 05:57:14;;;;;;;1.90;1.30;;;12.70;99.90;;;;;;5051107;28;20482;-74
2021/12/30 06:00:00;;;;;;;1.50;1.00;;;12.70;99.90;;;;;;5044332;28;20444;-74
2021/12/30 06:02:46;;;;;;;1.40;0.90;;;12.80;99.90;;;;;;5052111;28;20562;-75
2021/12/30 06:05:32;;;;;;;1.60;1.03;;;12.90;99.90;;;;;;5048369;28;20446;-75
2021/12/30 06:08:18;;;;;;;5.00;1.67;;;13.00;99.90;;;;;;5051879;28;20445;-74
2021/12/30 06:11:04;;;;;;;3.13;1.50;;;13.00;99.90;;;;;;5052040;28;20450;-75
2021/12/30 06:13:51;;;;;;;2.40;1.23;;;13.00;99.90;;;;;;5048907;28;20443;-74
2021/12/30 06:16:36;;;;;;;3.00;1.63;;;13.10;99.90;;;;;;5041295;28;20426;-74
2021/12/30 06:19:22;;;;;;;2.90;1.17;;;13.10;99.90;;;;;;5045093;28;20449;-75
2021/12/30 06:22:07;;;;;;;2.60;1.20;;;13.20;99.90;;;;;;5050132;28;20448;-74
2021/12/30 06:24:53;;;;;;;2.07;1.50;;;13.20;99.90;;;;;;5040920;28;20418;-74
2021/12/30 06:27:38;;;;;;;2.20;1.77;;;13.20;99.90;;;;;;5051318;28;20569;-75
2021/12/30 06:30:26;;;;;;;5.40;1.70;;;13.20;99.90;;;;;;5048449;28;20451;-74
2021/12/30 06:33:11;;;;;;;2.43;1.67;;;13.20;99.90;;;;;;5047512;28;20579;-74
2021/12/30 06:35:57;;;;;;;1.90;1.40;;;13.20;99.90;;;;;;5047813;28;20460;-73
2021/12/30 06:38:43;;;;;;;3.17;1.47;;;13.20;99.90;;;;;;5049843;28;20622;-74
2021/12/30 06:41:28;;;;;;;3.00;1.67;;;13.20;99.90;;;;;;5049419;28;20893;-73
2021/12/30 06:44:14;;;;;;;2.63;1.53;;;13.20;99.90;;;;;;5051298;28;20419;-73
2021/12/30 06:47:03;;;;;;;3.47;1.80;;;13.20;99.90;;;;;;5044204;28;20447;-74
2021/12/30 06:49:49;;;;;;;1.73;1.30;;;13.20;99.90;;;;;;5045391;28;20439;-75
2021/12/30 06:52:35;;;;;;;1.80;1.50;;;13.20;99.90;;;;;;5044674;28;20541;-74
2021/12/30 06:55:21;;;;;;;1.93;1.50;;;13.20;99.90;;;;;;5042555;28;20440;-73
2021/12/30 06:58:06;;;;;;;2.03;1.40;;;13.20;99.90;;;;;;5050391;28;20610;-74
2021/12/30 07:00:52;;;;;;;2.13;1.73;;;13.20;99.90;;;;;;5038925;28;20519;-74
2021/12/30 07:03:39;;;;;;;3.23;1.33;;;13.30;99.90;;;;;;5045835;28;20497;-74
2021/12/30 07:06:25;;;;;;;2.30;1.40;;;13.30;99.90;;;;;;5048339;28;20669;-73
2021/12/30 07:09:11;;;;;;;1.73;1.37;;;13.30;99.90;;;;;;5043337;28;20485;-74
2021/12/30 07:11:56;;;;;;;1.97;1.40;;;13.30;99.90;;;;;;5051483;28;20784;-74
2021/12/30 07:14:42;;;;;;;2.40;1.53;;;13.30;99.90;;;;;;5044881;28;20415;-74
2021/12/30 07:17:30;;;;;;;2.07;1.33;;;13.30;99.90;;;;;;5044656;28;20436;-75
2021/12/30 07:20:17;;;;;;;2.07;1.47;;;13.30;99.90;;;;;;5034871;28;20443;-73
2021/12/30 07:23:03;;;;;;;1.93;1.10;;;13.20;99.90;;;;;;5051265;28;20428;-73
2021/12/30 07:25:49;;;;;;;2.07;1.37;;;13.30;99.90;;;;;;5048820;28;20539;-74
2021/12/30 07:28:35;;;;;;;1.73;0.90;;;13.30;99.90;;;;;;5038245;28;20491;-75
2021/12/30 07:31:20;;;;;;;3.70;1.20;;;13.30;99.90;;;;;;5043042;28;20498;-75
2021/12/30 07:34:06;;;;;;;1.80;1.00;;;13.30;99.90;;;;;;5040691;28;20459;-73
2021/12/30 07:36:53;;;;;;;2.80;1.20;;;13.30;99.90;;;;;;5041703;28;20523;-73
2021/12/30 07:39:39;;;;;;;1.60;0.90;;;13.30;99.90;;;;;;5045362;28;20447;-74
2021/12/30 07:42:24;;;;;;;3.40;1.10;;;13.40;99.90;;;;;;5044669;28;20439;-74
2021/12/30 07:45:11;;;;;;;2.10;1.00;;;13.50;99.90;;;;;;5041827;28;20590;-74
2021/12/30 07:47:57;;;;;;;1.67;0.97;;;13.40;99.90;;;;;;5046588;28;20505;-75
2021/12/30 07:50:42;;;;;;;1.70;1.13;;;13.50;99.90;;;;;;5051158;28;20419;-73
2021/12/30 07:53:29;;;;;;;1.40;1.10;;;13.50;99.90;;;;;;5052487;28;20594;-74
2021/12/30 07:56:15;;;;;;;1.80;1.00;;;13.40;99.90;;;;;;5055029;28;20393;-74
2021/12/30 07:59:01;;;;;;;2.50;1.10;;;13.50;99.90;;;;;;5050662;28;20467;-73
2021/12/30 08:01:46;;;;;;;1.90;1.00;;;13.50;99.90;;;;;;5046505;28;21245;-73
2021/12/30 08:04:32;;;;;;;2.70;1.53;;;13.50;99.90;;;;;;5042738;28;20451;-74
2021/12/30 08:07:21;;;;;;;7.03;4.33;;;13.60;99.90;;;;;;5051390;28;20781;-74
2021/12/30 08:10:12;;;;;;;1.93;1.23;;;13.60;99.90;;;;;;5041271;28;20595;-75
2021/12/30 08:12:58;;;;;;;3.53;1.43;;;13.60;99.90;;;;;;5051961;28;20466;-73
2021/12/30 08:15:46;;;;;;;1.70;0.90;;;13.60;99.90;;;;;;5050156;28;20443;-74
2021/12/30 08:18:31;;;;;;;3.07;1.17;;;13.60;99.90;;;;;;5050401;28;21046;-75
2021/12/30 08:21:17;;;;;;;5.47;1.10;;;13.60;99.90;;;;;;5046045;28;20457;-74
2021/12/30 08:24:03;;;;;;;1.77;1.03;;;13.60;99.90;;;;;;5051382;28;20481;-74
2021/12/30 08:26:50;;;;;;;1.53;0.97;;;13.60;99.90;;;;;;5047028;28;20443;-74
2021/12/30 08:29:36;;;;;;;5.63;1.30;;;13.60;99.90;;;;;;5060304;22;20866;-74
2021/12/30 08:32:21;;;;;;;1.40;0.90;;;13.70;99.90;;;;;;5048306;28;20579;-75
2021/12/30 08:35:09;;;;;;;2.40;1.20;;;13.70;99.90;;;;;;5052348;28;20530;-75
2021/12/30 08:37:55;;;;;;;1.77;1.03;;;13.70;99.90;;;;;;5046717;28;20984;-75
2021/12/30 08:40:42;;;;;;;1.43;0.80;;;13.80;99.90;;;;;;5027916;28;20445;-74
2021/12/30 08:43:29;;;;;;;2.60;1.30;;;13.80;99.90;;;;;;5021231;28;20430;-75
2021/12/30 08:46:15;;;;;;;7.47;4.67;;;13.70;99.90;;;;;;5026226;28;20783;-75
2021/12/30 08:49:00;;;;;;;3.60;1.20;;;13.70;99.90;;;;;;5019853;28;20921;-75
2021/12/30 08:51:46;;;;;;;3.20;1.37;;;13.70;99.90;;;;;;5031737;28;20470;-75
2021/12/30 08:54:34;;;;;;;3.83;1.10;;;13.80;99.90;;;;;;5033116;28;20514;-74
2021/12/30 08:57:22;;;;;;;1.93;1.23;;;13.80;99.90;;;;;;5030339;28;20448;-75
2021/12/30 09:00:13;;;;;;;2.27;1.40;;;13.80;99.90;;;;;;5032480;28;20830;-75
2021/12/30 09:03:00;;;;;;;2.80;1.13;;;13.80;99.90;;;;;;5026012;28;20440;-75
2021/12/30 09:05:46;;;;;;;1.70;1.03;;;13.80;99.90;;;;;;5022183;28;20441;-75
2021/12/30 09:08:32;;;;;;;1.97;1.00;;;13.80;99.90;;;;;;5030739;28;20480;-75
2021/12/30 09:11:18;;;;;;;1.93;1.00;;;13.80;99.90;;;;;;5014123;28;20391;-74
2021/12/30 09:14:04;;;;;;;1.93;0.90;;;13.80;99.90;;;;;;5023282;28;20453;-75
2021/12/30 09:16:51;;;;;;;2.00;1.20;;;13.80;99.90;;;;;;5027812;28;20425;-74
2021/12/30 09:19:37;;;;;;;1.70;0.80;;;13.90;99.90;;;;;;5022202;28;20465;-75
2021/12/30 09:22:22;;;;;;;2.03;0.80;;;13.90;99.90;;;;;;5022511;28;20560;-75
2021/12/30 09:25:10;;;;;;;1.50;0.90;;;13.90;99.90;;;;;;5028426;28;20448;-73
2021/12/30 09:27:56;;;;;;;2.60;1.10;;;13.90;99.90;;;;;;5026636;28;20454;-73
2021/12/30 09:30:45;;;;;;;1.57;1.07;;;14.00;99.90;;;;;;5021923;28;20477;-73
2021/12/30 09:33:32;;;;;;;2.57;1.17;;;14.00;99.90;;;;;;5018391;28;20554;-73
2021/12/30 09:36:18;;;;;;;1.97;1.00;;;14.00;99.90;;;;;;5023799;28;20792;-74
2021/12/30 09:39:04;;;;;;;3.03;1.10;;;14.00;99.90;;;;;;5024553;28;20981;-74
2021/12/30 09:41:50;;;;;;;1.90;1.20;;;14.00;99.90;;;;;;5015869;28;20445;-74
2021/12/30 09:44:36;;;;;;;2.47;1.27;;;14.00;99.90;;;;;;5028016;28;20440;-75
2021/12/30 09:47:22;;;;;;;2.17;1.10;;;14.00;99.90;;;;;;5033292;28;20576;-74
2021/12/30 09:50:09;;;;;;;2.30;1.20;;;14.00;99.90;;;;;;5029440;28;20487;-75
2021/12/30 09:52:57;;;;;;;4.53;1.10;;;14.00;99.90;;;;;;5023152;28;20445;-74
2021/12/30 09:55:43;;;;;;;2.10;1.03;;;14.00;99.90;;;;;;5030380;28;20470;-74
2021/12/30 09:58:29;;;;;;;1.67;0.97;;;14.10;99.90;;;;;;5014015;28;20519;-74
2021/12/30 10:01:16;;;;;;;2.00;1.10;;;14.00;99.90;;;;;;5025840;28;20427;-75
2021/12/30 10:04:03;;;;;;;2.03;1.20;;;14.00;99.90;;;;;;5032697;28;20416;-74
2021/12/30 10:06:50;;;;;;;1.53;0.90;;;14.00;99.90;;;;;;5025570;28;20570;-74
2021/12/30 10:09:46;;;;;;;3.60;1.23;;;14.10;99.90;;;;;;5018243;28;20450;-74
2021/12/30 10:12:39;;;;;;;1.53;0.97;;;14.10;99.90;;;;;;5025208;28;20933;-74
2021/12/30 10:15:27;;;;;;;3.03;1.40;;;14.10;99.90;;;;;;5022636;28;20483;-75
2021/12/30 10:18:12;;;;;;;1.70;1.20;;;14.10;99.90;;;;;;5030878;28;20454;-75
2021/12/30 10:20:58;;;;;;;1.83;1.03;;;14.10;99.90;;;;;;5033175;28;20522;-76
2021/12/30 10:23:47;;;;;;;2.40;0.90;;;14.10;99.90;;;;;;5026016;28;20745;-74
2021/12/30 10:26:49;;;;;;;2.30;1.10;;;14.10;99.90;;;;;;5021842;28;20492;-76
2021/12/30 10:29:43;;;;;;;2.93;0.93;;;14.10;99.90;;;;;;5026019;28;20599;-77
2021/12/30 10:32:29;;;;;;;1.40;1.00;;;14.10;99.90;;;;;;5022720;28;20504;-76
2021/12/30 10:35:15;;;;;;;3.27;1.07;;;14.10;99.90;;;;;;5017105;28;20436;-76
2021/12/30 10:38:04;;;;;;;1.80;0.87;;;14.20;99.90;;;;;;5023449;28;20834;-76
2021/12/30 10:40:53;;;;;;;4.90;1.10;;;14.20;99.90;;;;;;5018521;28;20491;-75
2021/12/30 10:43:46;;;;;;;3.27;1.20;;;14.20;99.90;;;;;;5014065;28;20443;-76
2021/12/30 10:46:31;;;;;;;4.80;0.90;;;14.20;99.90;;;;;;5016964;28;20453;-76
2021/12/30 10:49:22;;;;;;;1.80;0.90;;;14.30;99.90;;;;;;5024416;28;20447;-75
2021/12/30 10:52:07;;;;;;;3.60;1.10;;;14.30;99.90;;;;;;5012978;28;20421;-76
2021/12/30 10:54:53;;;;;;;1.57;1.17;;;14.30;99.90;;;;;;5022824;28;21008;-73
2021/12/30 10:57:40;;;;;;;1.77;1.03;;;14.20;99.90;;;;;;5025135;28;20428;-76
2021/12/30 11:00:28;;;;;;;1.40;0.83;;;14.30;99.90;;;;;;5025925;28;20962;-76
2021/12/30 11:03:20;;;;;;;2.10;0.97;;;14.30;99.90;;;;;;5017628;28;20485;-76
2021/12/30 11:06:13;;;;;;;4.13;1.67;;;14.30;99.90;;;;;;5017936;28;20443;-76
2021/12/30 11:09:14;;;;;;;1.40;0.90;;;14.30;99.90;;;;;;5026620;28;21078;-75
2021/12/30 11:12:01;;;;;;;1.47;0.87;;;14.30;99.90;;;;;;5025719;28;20431;-76
2021/12/30 11:14:48;;;;;;;2.17;1.30;;;14.30;99.90;;;;;;5026717;28;20392;-76
2021/12/30 11:17:36;;;;;;;2.83;1.27;;;14.30;99.90;;;;;;5022502;28;20788;-76
2021/12/30 11:20:23;;;;;;;1.57;1.03;;;14.30;99.90;;;;;;5017132;28;20555;-74
2021/12/30 11:23:09;;;;;;;1.87;1.20;;;14.30;99.90;;;;;;5024837;28;20465;-75
2021/12/30 11:25:55;;;;;;;1.80;1.00;;;14.30;99.90;;;;;;5022426;28;20435;-75
2021/12/30 11:28:40;;;;;;;1.90;1.53;;;14.30;99.90;;;;;;5022856;28;20463;-75
2021/12/30 11:31:28;;;;;;;4.40;1.50;;;14.30;99.90;;;;;;5024436;28;20448;-74
2021/12/30 11:34:14;;;;;;;3.73;1.20;;;14.30;99.90;;;;;;5017319;28;20460;-74
2021/12/30 11:37:00;;;;;;;4.27;1.97;;;14.30;99.90;;;;;;5021300;28;20422;-73
2021/12/30 11:39:49;;;;;;;2.43;1.30;;;14.40;99.90;;;;;;5024612;28;20472;-74
2021/12/30 11:42:39;;;;;;;2.07;1.30;;;14.40;99.90;;;;;;5022765;28;20569;-77
2021/12/30 11:45:28;;;;;;;2.87;1.40;;;14.40;99.90;;;;;;5025171;28;20434;-75
2021/12/30 11:48:26;;;;;;;2.20;1.60;;;14.40;99.90;;;;;;5020664;28;20565;-72
2021/12/30 11:51:14;;;;;;;3.20;1.40;;;14.40;99.90;;;;;;5023191;28;20802;-74
2021/12/30 11:54:35;;;;;;;4.80;1.30;;;14.40;99.90;;;;;;5016654;28;20776;-76
2021/12/30 11:57:31;;;;;;;9.17;1.47;;;14.40;99.90;;;;;;5028692;28;20436;-74
2021/12/30 12:00:36;;;;;;;2.67;1.67;;;14.50;99.90;;;;;;5013961;28;20442;-74
2021/12/30 12:03:32;;;;;;;3.90;1.87;;;14.60;99.90;;;;;;5023324;28;20423;-74
2021/12/30 12:06:31;;;;;;;3.13;1.17;;;14.60;99.90;;;;;;5026866;28;20416;-73
2021/12/30 12:09:36;;;;;;;2.80;1.93;;;14.60;99.90;;;;;;5014106;28;20544;-74
2021/12/30 12:12:34;;;;;;;5.10;1.67;;;14.70;99.90;;;;;;5022957;28;20427;-74
2021/12/30 12:15:20;;;;;;;2.90;1.73;;;14.90;99.90;;;;;;5016892;28;20423;-74
2021/12/30 12:18:14;;;;;;;3.50;1.60;;;14.90;99.90;;;;;;5019536;28;20458;-72
2021/12/30 12:21:05;;;;;;;2.17;1.57;;;14.90;99.90;;;;;;5028325;28;20555;-73
2021/12/30 12:23:50;;;;;;;2.03;1.50;;;14.90;99.90;;;;;;5017390;28;20431;-74
2021/12/30 12:26:40;;;;;;;2.60;1.57;;;14.90;99.90;;;;;;5018705;28;20451;-73
2021/12/30 12:29:28;;;;;;;3.20;1.50;;;14.90;99.90;;;;;;5023175;28;20468;-73
2021/12/30 12:32:16;;;;;;;6.90;1.70;;;14.80;99.90;;;;;;5023778;28;20472;-73
2021/12/30 12:35:04;;;;;;;3.53;1.43;;;14.80;99.90;;;;;;5027188;28;20430;-74
2021/12/30 12:37:59;;;;;;;3.07;1.30;;;14.80;99.90;;;;;;5020787;28;20453;-73
2021/12/30 12:40:53;;;;;;;2.20;1.30;;;14.70;99.90;;;;;;5023294;28;20970;-73
2021/12/30 12:43:40;;;;;;;1.90;1.23;;;14.60;99.90;;;;;;5020564;28;20435;-73
2021/12/30 12:46:44;;;;;;;4.20;1.20;;;14.60;99.90;;;;;;5033228;28;20796;-72
2021/12/30 12:49:44;;;;;;;2.50;1.70;;;14.60;99.90;;;;;;5022612;28;20443;-73
2021/12/30 12:52:42;;;;;;;1.80;1.30;;;14.50;99.90;;;;;;5030860;28;20422;-73
2021/12/30 12:55:38;;;;;;;1.80;1.37;;;14.40;99.90;;;;;;5028417;28;20784;-73
2021/12/30 12:58:25;;;;;;;2.60;1.70;;;14.40;99.90;;;;;;5035476;28;20911;-73
2021/12/30 13:01:13;;;;;;;2.83;1.70;;;14.40;99.90;;;;;;5033300;28;20537;-73
2021/12/30 13:04:01;;;;;;;2.30;1.70;;;14.30;99.90;;;;;;5030953;28;20407;-73
2021/12/30 13:06:47;;;;;;;2.27;1.80;;;14.30;99.90;;;;;;5028144;28;20530;-73
2021/12/30 13:09:33;;;;;;;2.10;1.60;;;14.30;99.90;;;;;;5021206;28;20545;-73
2021/12/30 13:12:20;;;;;;;3.00;1.63;;;14.30;99.90;;;;;;5032062;28;20992;-73
2021/12/30 13:15:10;;;;;;;5.23;2.90;;;14.30;99.90;;;;;;5035138;28;20438;-75
2021/12/30 13:17:59;;;;;;;3.93;1.90;;;14.30;99.90;;;;;;5028543;28;20447;-73
2021/12/30 13:20:45;;;;;;;2.40;1.70;;;14.20;99.90;;;;;;5029989;28;20451;-74
2021/12/30 13:23:33;;;;;;;3.57;2.30;;;14.20;99.90;;;;;;5027285;28;20903;-73
2021/12/30 13:26:18;;;;;;;3.60;2.33;;;14.20;99.90;;;;;;5024474;28;20555;-74
2021/12/30 13:29:06;;;;;;;6.10;3.03;;;14.20;99.90;;;;;;5033338;28;20450;-73
2021/12/30 13:32:01;;;;;;;2.70;1.97;;;14.20;99.90;;;;;;5028649;28;20591;-73
2021/12/30 13:35:02;;;;;;;3.30;2.13;;;14.20;99.90;;;;;;5024601;28;20660;-73
2021/12/30 13:37:49;;;;;;;2.27;1.67;;;14.20;99.90;;;;;;5028259;28;20561;-73
2021/12/30 13:40:39;;;;;;;2.10;1.67;;;14.20;99.90;;;;;;5020618;28;20472;-73
2021/12/30 13:43:24;;;;;;;2.50;1.93;;;14.10;99.90;;;;;;5027930;28;20508;-73
2021/12/30 13:46:12;;;;;;;2.83;1.80;;;14.20;99.90;;;;;;5023384;28;20431;-73
2021/12/30 13:48:58;;;;;;;2.30;1.83;;;14.20;99.90;;;;;;5026834;28;20450;-75
2021/12/30 13:51:44;;;;;;;3.47;2.60;;;14.20;99.90;;;;;;5028619;28;20957;-75
2021/12/30 13:54:30;;;;;;;3.03;2.10;;;14.20;99.90;;;;;;5025171;28;20517;-73
2021/12/30 13:57:26;;;;;;;4.07;2.30;;;14.20;99.90;;;;;;5030168;28;20435;-75
2021/12/30 14:00:16;;;;;;;3.90;2.40;;;14.20;99.90;;;;;;5033058;28;20914;-74
2021/12/30 14:03:05;;;;;;;4.00;2.23;;;14.10;99.90;;;;;;5032612;28;20447;-74
2021/12/30 14:05:51;;;;;;;4.80;2.07;;;14.10;99.90;;;;;;5052454;28;20399;-74
2021/12/30 14:08:38;;;;;;;4.23;2.33;;;14.20;99.90;;;;;;5052972;28;20557;-73
2021/12/30 14:11:28;;;;;;;8.00;2.80;;;14.20;99.90;;;;;;5052982;28;20473;-75
2021/12/30 14:14:16;;;;;;;2.87;2.20;;;14.20;99.90;;;;;;5044731;28;20494;-75
2021/12/30 14:17:03;;;;;;;4.87;2.73;;;14.20;99.90;;;;;;5052925;28;20402;-75
2021/12/30 14:19:52;;;;;;;3.03;2.33;;;14.20;99.90;;;;;;5052686;28;20436;-75
2021/12/30 14:22:38;;;;;;;11.27;2.50;;;14.20;99.90;;;;;;5045730;28;20477;-75
2021/12/30 14:25:30;;;;;;;2.87;1.90;;;14.20;99.90;;;;;;5052838;28;20513;-75
2021/12/30 14:28:21;;;;;;;2.83;1.67;;;14.30;99.90;;;;;;5044161;22;20491;-73
2021/12/30 14:31:19;;;;;;;5.20;1.73;;;14.30;99.90;;;;;;5052819;28;20467;-73